createdAt,value
2018-06-10T00:00:24.300Z,94.20
2018-06-10T00:03:02.805Z,94.70
2018-06-10T00:05:41.264Z,95.30
2018-06-10T00:08:13.837Z,96.10
2018-06-10T00:10:45.633Z,95.10
2018-06-10T00:15:49.272Z,95.60
2018-06-10T00:18:21.126Z,96.10
2018-06-10T00:20:55.223Z,96.10
2018-06-10T00:23:26.554Z,96.60
2018-06-10T00:25:58.526Z,96.90
2018-06-10T00:28:35.377Z,97.50
2018-06-10T00:31:07.782Z,97.60
2018-06-10T00:33:39.733Z,98.00
2018-06-10T00:36:11.078Z,97.10
2018-06-10T00:38:42.563Z,96.40
2018-06-10T00:41:14.001Z,96.50
2018-06-10T00:43:50.732Z,95.80
2018-06-10T00:46:22.426Z,95.70
2018-06-10T00:48:54.549Z,95.20
2018-06-10T00:51:26.580Z,95.00
2018-06-10T00:54:02.230Z,95.40
2018-06-10T00:56:45.126Z,95.30
2018-06-10T00:59:21.781Z,96.40
2018-06-10T01:01:54.698Z,95.90
2018-06-10T01:04:27.180Z,95.40
2018-06-10T01:07:00.368Z,96.10
2018-06-10T01:09:31.873Z,96.10
2018-06-10T01:12:04.211Z,96.10
2018-06-10T01:14:37.128Z,96.30
2018-06-10T01:17:08.283Z,96.40
2018-06-10T01:19:40.234Z,96.70
2018-06-10T01:22:13.194Z,96.80
2018-06-10T01:24:44.870Z,97.00
2018-06-10T01:27:16.103Z,96.20
2018-06-10T01:29:48.064Z,96.10
2018-06-10T01:34:51.554Z,95.30
2018-06-10T01:37:23.860Z,95.50
2018-06-10T01:39:56.269Z,95.80
2018-06-10T01:42:28.931Z,96.10
2018-06-10T01:45:01.474Z,96.30
2018-06-10T01:47:34.519Z,96.70
2018-06-10T01:50:06.579Z,97.30
2018-06-10T01:52:38.930Z,97.50
2018-06-10T01:55:10.224Z,97.50
2018-06-10T01:57:41.686Z,97.10
2018-06-10T02:00:14.125Z,97.10
2018-06-10T02:02:45.935Z,97.00
2018-06-10T02:05:17.627Z,97.00
2018-06-10T02:07:49.631Z,97.20
2018-06-10T02:10:21.794Z,97.50
2018-06-10T02:12:54.491Z,97.60
2018-06-10T02:15:26.980Z,97.80
2018-06-10T02:17:59.214Z,97.70
2018-06-10T02:20:31.334Z,97.70
2018-06-10T02:23:03.751Z,97.70
2018-06-10T02:25:35.542Z,98.20
2018-06-10T02:28:07.325Z,97.90
2018-06-10T02:30:39.070Z,97.70
2018-06-10T02:33:11.732Z,97.70
2018-06-10T02:35:43.512Z,97.70
2018-06-10T02:38:14.734Z,97.70
2018-06-10T02:40:45.899Z,97.90
2018-06-10T02:43:18.875Z,98.20
2018-06-10T02:45:50.565Z,98.20
2018-06-10T02:48:22.799Z,98.20
2018-06-10T02:50:54.133Z,98.40
2018-06-10T02:53:26.146Z,97.70
2018-06-10T02:55:59.257Z,97.80
2018-06-10T02:58:33.175Z,97.90
2018-06-10T03:01:06.482Z,97.90
2018-06-10T03:03:38.967Z,97.70
2018-06-10T03:06:10.747Z,97.70
2018-06-10T03:08:42.962Z,97.50
2018-06-10T03:11:14.356Z,97.50
2018-06-10T03:13:49.734Z,97.40
2018-06-10T03:16:20.666Z,97.30
2018-06-10T03:18:53.142Z,97.30
2018-06-10T03:21:25.052Z,97.60
2018-06-10T03:23:58.117Z,97.90
2018-06-10T03:26:30.029Z,98.10
2018-06-10T03:29:02.943Z,98.60
2018-06-10T03:31:34.210Z,99.00
2018-06-10T03:34:06.397Z,99.40
2018-06-10T03:36:42.229Z,99.10
2018-06-10T03:39:14.808Z,98.90
2018-06-10T03:41:47.360Z,98.80
2018-06-10T03:44:18.572Z,98.80
2018-06-10T03:46:55.655Z,98.60
2018-06-10T03:49:27.006Z,98.80
2018-06-10T03:51:58.477Z,99.20
2018-06-10T03:54:36.042Z,99.40
2018-06-10T03:57:08.446Z,99.30
2018-06-10T03:59:40.861Z,99.20
2018-06-10T04:04:43.744Z,99.00
2018-06-10T04:07:15.902Z,98.80
2018-06-10T04:09:47.581Z,98.70
2018-06-10T04:12:26.304Z,98.10
2018-06-10T04:14:58.529Z,97.10
2018-06-10T04:17:30.286Z,96.90
2018-06-10T04:20:02.420Z,96.20
2018-06-10T04:22:34.213Z,95.20
2018-06-10T04:25:06.554Z,95.00
2018-06-10T04:27:38.467Z,95.20
2018-06-10T04:30:10.445Z,95.10
2018-06-10T04:32:41.821Z,94.70
2018-06-10T04:35:14.546Z,94.80
2018-06-10T04:37:46.265Z,95.10
2018-06-10T04:40:17.693Z,95.20
2018-06-10T04:42:50.754Z,95.10
2018-06-10T04:45:22.370Z,95.20
2018-06-10T04:47:59.143Z,95.20
2018-06-10T04:50:30.289Z,95.00
2018-06-10T04:53:02.126Z,95.20
2018-06-10T04:55:33.859Z,94.60
2018-06-10T04:58:07.734Z,94.80
2018-06-10T05:00:39.421Z,95.30
2018-06-10T05:03:11.591Z,95.00
2018-06-10T05:05:43.648Z,95.00
2018-06-10T05:08:14.969Z,94.10
2018-06-10T05:10:46.808Z,93.60
2018-06-10T05:13:18.144Z,93.10
2018-06-10T05:15:53.627Z,92.90
2018-06-10T05:18:26.418Z,92.70
2018-06-10T05:21:02.763Z,92.90
2018-06-10T05:23:34.629Z,92.50
2018-06-10T05:26:07.265Z,92.20
2018-06-10T05:28:39.780Z,92.20
2018-06-10T05:31:13.095Z,91.80
2018-06-10T05:33:44.846Z,92.00
2018-06-10T05:36:16.893Z,91.70
2018-06-10T05:38:48.132Z,91.10
2018-06-10T05:41:19.872Z,90.60
2018-06-10T05:43:52.342Z,91.20
2018-06-10T05:46:25.151Z,90.80
2018-06-10T05:48:56.740Z,90.70
2018-06-10T05:51:28.117Z,90.50
2018-06-10T05:53:59.304Z,89.80
2018-06-10T05:56:30.954Z,89.90
2018-06-10T05:59:04.167Z,89.80
2018-06-10T06:01:35.600Z,89.50
2018-06-10T06:04:07.456Z,89.10
2018-06-10T06:06:41.679Z,88.50
2018-06-10T06:09:14.579Z,88.80
2018-06-10T06:11:46.720Z,88.10
2018-06-10T06:14:18.282Z,86.80
2018-06-10T06:16:50.621Z,86.50
2018-06-10T06:19:22.121Z,87.10
2018-06-10T06:21:54.451Z,87.20
2018-06-10T06:24:26.009Z,86.80
2018-06-10T06:26:58.580Z,86.50
2018-06-10T06:29:30.959Z,87.40
2018-06-10T06:32:04.320Z,86.50
2018-06-10T06:34:36.303Z,85.60
2018-06-10T06:37:09.402Z,85.00
2018-06-10T06:39:42.244Z,85.20
2018-06-10T06:42:15.629Z,85.70
2018-06-10T06:44:49.210Z,84.20
2018-06-10T06:47:21.910Z,84.10
2018-06-10T06:52:27.312Z,85.40
2018-06-10T06:55:01.172Z,86.40
2018-06-10T06:57:34.484Z,86.00
2018-06-10T07:00:07.903Z,86.00
2018-06-10T07:02:42.258Z,86.50
2018-06-10T07:05:16.813Z,86.40
2018-06-10T07:10:27.618Z,86.70
2018-06-10T07:15:39.299Z,87.20
2018-06-10T07:18:13.632Z,86.70
2018-06-10T07:20:46.636Z,86.00
2018-06-10T07:23:21.680Z,85.70
2018-06-10T07:25:55.561Z,86.20
2018-06-10T07:28:28.819Z,86.20
2018-06-10T07:31:01.689Z,86.50
2018-06-10T07:33:32.839Z,86.70
2018-06-10T07:36:03.845Z,87.40
2018-06-10T07:38:35.146Z,87.10
2018-06-10T07:41:10.013Z,87.00
2018-06-10T07:43:41.507Z,86.60
2018-06-10T07:46:13.537Z,86.70
2018-06-10T07:48:44.431Z,86.30
2018-06-10T07:51:16.527Z,85.30
2018-06-10T07:53:47.469Z,84.80
2018-06-10T07:56:19.532Z,84.00
2018-06-10T07:58:56.225Z,84.30
2018-06-10T08:01:27.541Z,83.70
2018-06-10T08:03:58.377Z,84.60
2018-06-10T08:06:28.648Z,84.10
2018-06-10T08:08:58.852Z,83.40
2018-06-10T08:11:34.397Z,83.10
2018-06-10T08:14:09.276Z,83.20
2018-06-10T08:16:39.590Z,82.20
2018-06-10T08:19:10.196Z,82.00
2018-06-10T08:21:40.582Z,82.20
2018-06-10T08:24:10.883Z,81.10
2018-06-10T08:26:45.847Z,81.20
2018-06-10T08:29:19.366Z,81.10
2018-06-10T08:31:50.200Z,81.80
2018-06-10T08:34:25.515Z,81.10
2018-06-10T08:36:56.854Z,81.10
2018-06-10T08:39:27.736Z,80.70
2018-06-10T08:41:58.196Z,79.60
2018-06-10T08:44:32.496Z,78.70
2018-06-10T08:47:12.934Z,78.30
2018-06-10T08:49:43.526Z,79.00
2018-06-10T08:52:14.771Z,78.80
2018-06-10T08:54:49.095Z,78.70
2018-06-10T08:57:21.190Z,78.50
2018-06-10T08:59:52.298Z,78.40
2018-06-10T09:02:23.307Z,77.80
2018-06-10T09:04:54.091Z,77.70
2018-06-10T09:07:24.739Z,77.50
2018-06-10T09:09:54.973Z,77.70
2018-06-10T09:12:27.076Z,76.80
2018-06-10T09:14:58.799Z,76.70
2018-06-10T09:17:30.925Z,77.00
2018-06-10T09:20:01.228Z,76.70
2018-06-10T09:22:31.999Z,76.00
2018-06-10T09:25:02.413Z,75.90
2018-06-10T09:27:32.717Z,75.90
2018-06-10T09:30:02.645Z,76.50
2018-06-10T09:32:32.946Z,75.90
2018-06-10T09:35:03.101Z,75.50
2018-06-10T09:37:32.912Z,74.80
2018-06-10T09:40:03.056Z,74.90
2018-06-10T09:42:34.715Z,74.40
2018-06-10T09:45:05.208Z,74.00
2018-06-10T09:50:05.879Z,74.60
2018-06-10T09:52:36.373Z,74.40
2018-06-10T09:55:07.925Z,73.80
2018-06-10T09:57:39.523Z,72.20
2018-06-10T10:00:10.441Z,72.20
2018-06-10T10:05:12.664Z,72.20
2018-06-10T10:07:42.940Z,71.70
2018-06-10T10:10:19.649Z,70.50
2018-06-10T10:12:49.837Z,70.90
2018-06-10T10:15:28.629Z,71.70
2018-06-10T10:18:03.094Z,72.30
2018-06-10T10:20:34.394Z,73.00
2018-06-10T10:23:05.670Z,73.30
2018-06-10T10:25:40.462Z,73.10
2018-06-10T10:28:10.307Z,72.90
2018-06-10T10:30:40.523Z,72.00
2018-06-10T10:33:10.768Z,70.90
2018-06-10T10:35:41.261Z,71.10
2018-06-10T10:38:12.800Z,71.50
2018-06-10T10:40:44.282Z,72.20
2018-06-10T10:43:18.644Z,72.80
2018-06-10T10:48:42.952Z,72.20
2018-06-10T10:51:14.551Z,72.10
2018-06-10T10:53:45.485Z,71.20
2018-06-10T10:56:20.000Z,69.90
2018-06-10T10:58:50.078Z,69.00
2018-06-10T11:01:21.505Z,67.90
2018-06-10T11:03:56.028Z,68.50
2018-06-10T11:06:28.885Z,66.70
2018-06-10T11:09:00.278Z,67.80
2018-06-10T11:11:31.501Z,68.70
2018-06-10T11:14:03.887Z,70.10
2018-06-10T11:16:35.409Z,71.20
2018-06-10T11:19:12.768Z,70.80
2018-06-10T11:21:44.670Z,70.30
2018-06-10T11:24:18.079Z,70.40
2018-06-10T11:26:50.250Z,69.50
2018-06-10T11:29:21.981Z,66.70
2018-06-10T11:31:53.472Z,64.80
2018-06-10T11:34:23.797Z,63.40
2018-06-10T11:36:59.012Z,62.00
2018-06-10T11:39:30.168Z,61.60
2018-06-10T11:42:01.400Z,61.90
2018-06-10T11:44:32.952Z,63.40
2018-06-10T11:47:03.395Z,63.90
2018-06-10T11:49:34.750Z,66.40
2018-06-10T11:52:09.312Z,67.20
2018-06-10T11:54:39.986Z,66.10
2018-06-10T11:57:11.085Z,64.20
2018-06-10T12:00:03.859Z,63.50
2018-06-10T12:02:35.528Z,62.90
2018-06-10T12:05:08.936Z,63.50
2018-06-10T12:07:39.320Z,63.00
2018-06-10T12:10:14.094Z,63.80
2018-06-10T12:12:45.574Z,62.30
2018-06-10T12:15:18.503Z,62.70
2018-06-10T12:17:49.771Z,61.90
2018-06-10T12:20:20.202Z,60.90
2018-06-10T12:22:50.789Z,60.80
2018-06-10T12:25:22.760Z,62.40
2018-06-10T12:27:53.638Z,62.70
2018-06-10T12:30:25.128Z,63.30
2018-06-10T12:32:59.748Z,61.70
2018-06-10T12:35:30.168Z,61.00
2018-06-10T12:38:05.226Z,61.10
2018-06-10T12:40:37.829Z,60.90
2018-06-10T12:43:10.611Z,61.00
2018-06-10T12:45:41.193Z,61.30
2018-06-10T12:48:11.596Z,61.60
2018-06-10T12:50:43.727Z,63.30
2018-06-10T12:53:14.155Z,60.10
2018-06-10T12:55:44.948Z,60.60
2018-06-10T12:58:16.420Z,60.70
2018-06-10T13:00:48.641Z,59.20
2018-06-10T13:03:20.525Z,58.70
2018-06-10T13:05:51.156Z,56.70
2018-06-10T13:08:22.117Z,57.60
2018-06-10T13:10:53.146Z,56.10
2018-06-10T13:13:29.149Z,57.40
2018-06-10T13:16:00.505Z,58.30
2018-06-10T13:18:33.042Z,57.80
2018-06-10T13:21:04.258Z,56.70
2018-06-10T13:23:37.873Z,56.30
2018-06-10T13:26:09.635Z,55.00
2018-06-10T13:28:41.177Z,54.50
2018-06-10T13:32:16.912Z,55.30
2018-06-10T13:34:48.414Z,55.80
2018-06-10T13:37:21.490Z,54.60
2018-06-10T13:39:53.410Z,55.50
2018-06-10T13:42:25.035Z,55.80
2018-06-10T13:44:55.813Z,55.70
2018-06-10T13:47:27.492Z,53.80
2018-06-10T13:50:03.197Z,55.00
2018-06-10T13:52:33.977Z,54.70
2018-06-10T13:55:04.983Z,55.20
2018-06-10T13:57:38.715Z,55.70
2018-06-10T14:00:09.484Z,56.90
2018-06-10T14:02:41.246Z,56.70
2018-06-10T14:05:17.401Z,56.80
2018-06-10T14:07:50.165Z,57.60
2018-06-10T14:10:22.020Z,56.40
2018-06-10T14:12:54.481Z,56.60
2018-06-10T14:15:25.265Z,55.80
2018-06-10T14:17:56.335Z,55.10
2018-06-10T14:20:29.022Z,55.10
2018-06-10T14:23:02.485Z,55.80
2018-06-10T14:25:33.981Z,55.30
2018-06-10T14:28:06.117Z,56.60
2018-06-10T14:30:42.320Z,57.80
2018-06-10T14:33:14.108Z,57.20
2018-06-10T14:35:44.499Z,56.20
2018-06-10T14:38:14.305Z,56.10
2018-06-10T14:40:48.349Z,55.70
2018-06-10T14:43:21.605Z,55.10
2018-06-10T14:45:53.072Z,54.70
2018-06-10T14:48:22.850Z,55.20
2018-06-10T14:50:53.704Z,55.40
2018-06-10T14:53:23.858Z,55.10
2018-06-10T14:55:54.348Z,55.50
2018-06-10T14:58:24.057Z,55.00
2018-06-10T15:00:55.741Z,54.40
2018-06-10T15:03:27.793Z,54.30
2018-06-10T15:05:57.562Z,53.90
2018-06-10T15:08:27.410Z,54.40
2018-06-10T15:11:00.010Z,54.40
2018-06-10T15:13:30.334Z,54.50
2018-06-10T15:16:01.777Z,55.70
2018-06-10T15:18:33.593Z,54.50
2018-06-10T15:21:03.557Z,53.90
2018-06-10T15:23:33.591Z,54.40
2018-06-10T15:26:04.601Z,54.60
2018-06-10T15:28:39.700Z,54.60
2018-06-10T15:31:10.377Z,54.40
2018-06-10T15:33:43.661Z,56.30
2018-06-10T15:36:14.256Z,57.50
2018-06-10T15:38:45.399Z,57.50
2018-06-10T15:41:15.828Z,57.60
2018-06-10T15:43:46.104Z,55.90
2018-06-10T15:46:21.837Z,55.30
2018-06-10T15:48:52.765Z,55.00
2018-06-10T15:51:24.016Z,55.70
2018-06-10T15:53:55.527Z,56.90
2018-06-10T15:56:26.776Z,58.40
2018-06-10T15:58:57.908Z,60.50
2018-06-10T16:01:28.890Z,61.50
2018-06-10T16:03:58.597Z,61.90
2018-06-10T16:09:03.234Z,62.10
2018-06-10T16:16:35.033Z,62.30
2018-06-10T16:19:06.799Z,62.80
2018-06-10T16:21:36.727Z,61.50
2018-06-10T16:24:06.918Z,60.00
2018-06-10T16:26:38.727Z,59.40
2018-06-10T16:29:08.774Z,59.70
2018-06-10T16:31:42.218Z,60.60
2018-06-10T16:34:13.164Z,61.60
2018-06-10T16:36:43.663Z,62.40
2018-06-10T16:39:13.700Z,62.80
2018-06-10T16:41:44.010Z,62.90
2018-06-10T16:47:03.448Z,62.10
2018-06-10T16:49:34.664Z,61.90
2018-06-10T16:52:05.890Z,61.80
2018-06-10T16:54:37.204Z,62.10
2018-06-10T16:57:08.372Z,62.60
2018-06-10T16:59:39.724Z,62.80
2018-06-10T17:02:10.691Z,63.10
2018-06-10T17:04:41.693Z,63.20
2018-06-10T17:07:14.830Z,63.80
2018-06-10T17:09:46.287Z,64.10
2018-06-10T17:12:17.757Z,65.10
2018-06-10T17:14:49.841Z,65.50
2018-06-10T17:17:21.569Z,66.00
2018-06-10T17:19:56.904Z,66.50
2018-06-10T17:22:30.972Z,67.10
2018-06-10T17:25:02.865Z,67.30
2018-06-10T17:27:37.468Z,67.10
2018-06-10T17:30:09.112Z,66.30
2018-06-10T17:32:40.996Z,66.30
2018-06-10T17:35:12.834Z,66.50
2018-06-10T17:37:45.458Z,66.60
2018-06-10T17:40:17.717Z,67.30
2018-06-10T17:42:51.556Z,67.70
2018-06-10T17:45:23.349Z,68.30
2018-06-10T17:47:56.967Z,68.40
2018-06-10T17:50:42.136Z,68.60
2018-06-10T17:53:15.054Z,68.90
2018-06-10T17:55:51.516Z,68.90
2018-06-10T17:58:23.698Z,68.90
2018-06-10T18:00:55.885Z,69.50
2018-06-10T18:03:28.584Z,69.50
2018-06-10T18:06:00.781Z,69.90
2018-06-10T18:08:34.499Z,69.90
2018-06-10T18:11:06.492Z,69.90
2018-06-10T18:13:38.856Z,70.70
2018-06-10T18:16:11.042Z,70.90
2018-06-10T18:18:45.009Z,70.70
2018-06-10T18:21:17.476Z,70.80
2018-06-10T18:23:50.291Z,71.70
2018-06-10T18:26:23.128Z,71.70
2018-06-10T18:28:55.970Z,71.90
2018-06-10T18:31:28.332Z,71.80
2018-06-10T18:34:00.543Z,71.60
2018-06-10T18:36:33.119Z,72.20
2018-06-10T18:39:08.201Z,72.60
2018-06-10T18:41:41.473Z,73.00
2018-06-10T18:44:13.859Z,72.80
2018-06-10T18:46:46.387Z,72.90
2018-06-10T18:49:18.464Z,72.60
2018-06-10T18:51:53.337Z,72.90
2018-06-10T18:54:28.766Z,72.80
2018-06-10T18:57:02.337Z,72.20
2018-06-10T18:59:34.354Z,72.70
2018-06-10T19:02:12.664Z,72.60
2018-06-10T19:04:46.984Z,73.00
2018-06-10T19:07:21.237Z,73.80
2018-06-10T19:09:55.474Z,73.80
2018-06-10T19:12:29.384Z,73.50
2018-06-10T19:15:01.748Z,74.10
2018-06-10T19:17:35.031Z,74.20
2018-06-10T19:20:07.716Z,74.90
2018-06-10T19:22:54.147Z,74.90
2018-06-10T19:25:30.916Z,75.00
2018-06-10T19:28:09.883Z,75.30
2018-06-10T19:30:50.094Z,75.70
2018-06-10T19:33:23.064Z,76.00
2018-06-10T19:35:58.629Z,76.30
2018-06-10T19:38:32.660Z,76.60
2018-06-10T19:41:10.547Z,76.60
2018-06-10T19:43:43.929Z,76.70
2018-06-10T19:46:17.839Z,77.30
2018-06-10T19:48:53.113Z,77.60
2018-06-10T19:51:27.410Z,77.70
2018-06-10T19:56:59.305Z,78.30
2018-06-10T19:59:36.073Z,78.70
2018-06-10T20:04:45.650Z,78.80
2018-06-10T20:07:19.730Z,78.90
2018-06-10T20:09:53.538Z,79.20
2018-06-10T20:12:28.792Z,79.40
2018-06-10T20:15:02.322Z,79.70
2018-06-10T20:17:43.871Z,79.80
2018-06-10T20:20:16.950Z,80.40
2018-06-10T20:22:50.390Z,80.40
2018-06-10T20:25:27.148Z,80.70
2018-06-10T20:28:04.201Z,80.90
2018-06-10T20:30:38.931Z,81.00
2018-06-10T20:33:13.917Z,80.80
2018-06-10T20:35:47.286Z,80.90
2018-06-10T20:38:20.271Z,81.80
2018-06-10T20:41:01.746Z,82.10
2018-06-10T20:43:39.485Z,82.30
2018-06-10T20:46:19.530Z,82.40
2018-06-10T20:49:04.267Z,82.80
2018-06-10T20:51:45.999Z,83.00
2018-06-10T20:54:25.370Z,82.90
2018-06-10T20:57:03.938Z,83.00
2018-06-10T20:59:46.513Z,83.10
2018-06-10T21:02:29.939Z,83.40
2018-06-10T21:08:10.461Z,83.70
2018-06-10T21:10:44.763Z,83.90
2018-06-10T21:13:17.909Z,84.00
2018-06-10T21:15:51.353Z,84.20
2018-06-10T21:18:26.709Z,84.10
2018-06-10T21:20:59.405Z,84.20
2018-06-10T21:23:31.752Z,84.40
2018-06-10T21:26:07.129Z,84.60
2018-06-10T21:28:41.071Z,85.40
2018-06-10T21:31:20.423Z,85.50
2018-06-10T21:33:53.842Z,85.30
2018-06-10T21:36:28.371Z,85.40
2018-06-10T21:41:39.285Z,86.00
2018-06-10T21:44:11.624Z,86.20
2018-06-10T21:46:45.757Z,86.20
2018-06-10T21:49:18.387Z,86.60
2018-06-10T21:51:51.599Z,86.70
2018-06-10T21:54:24.957Z,87.00
2018-06-10T21:57:00.703Z,87.20
2018-06-10T22:02:25.904Z,87.00
2018-06-10T22:05:00.537Z,86.70
2018-06-10T22:07:33.958Z,86.80
2018-06-10T22:10:07.166Z,87.00
2018-06-10T22:12:40.201Z,87.20
2018-06-10T22:15:13.305Z,87.40
2018-06-10T22:20:17.995Z,87.50
2018-06-10T22:22:50.475Z,87.80
2018-06-10T22:25:24.868Z,87.90
2018-06-10T22:27:58.481Z,87.90
2018-06-10T22:33:04.151Z,88.30
2018-06-10T22:35:37.095Z,88.10
2018-06-10T22:38:10.740Z,88.20
2018-06-10T22:40:43.462Z,88.30
2018-06-10T22:43:16.426Z,88.10
2018-06-10T22:45:56.125Z,88.30
2018-06-10T22:48:35.678Z,88.50
2018-06-10T22:51:13.943Z,88.70
2018-06-10T22:54:31.192Z,88.90
2018-06-10T22:57:14.524Z,88.80
2018-06-10T22:59:56.386Z,88.90
2018-06-10T23:02:40.343Z,88.80
2018-06-10T23:05:24.729Z,89.10
2018-06-10T23:08:00.782Z,89.10
2018-06-10T23:10:33.126Z,89.50
2018-06-10T23:13:09.359Z,89.40
2018-06-10T23:15:42.459Z,89.60
2018-06-10T23:18:15.323Z,89.90
2018-06-10T23:20:47.612Z,89.80
2018-06-10T23:23:21.494Z,89.90
2018-06-10T23:25:55.646Z,89.80
2018-06-10T23:28:28.854Z,90.30
2018-06-10T23:31:01.951Z,90.40
2018-06-10T23:33:34.895Z,90.60
2018-06-10T23:36:08.206Z,90.60
2018-06-10T23:38:41.636Z,90.60
2018-06-10T23:41:23.272Z,90.70
2018-06-10T23:43:56.442Z,90.60
2018-06-10T23:46:29.064Z,90.70
2018-06-10T23:54:28.007Z,91.00
2018-06-10T23:57:00.236Z,91.30
2018-06-10T23:59:32.764Z,91.40
